Clipper Imabari — 3ERD7 — position and weather

sailwx.info

Track history (hours):
 
Tides and Currents Weather Stations Pressure Air Temp Water Temp Dewpoint Dewpoint Depression Visibility Wind Speed Wind Dir Waves Ship Positions

Clipper Imabari

Last reported at 2014-Dec-21 18:19 UTC. Time now 2014-Dec-22 08:24 UTC.
Position N 36°20' E 014°31'.

Length 169 m; draft 9.3 m.

Type: Cargo ship. MMSI: 370016000.

Date/timePositionNaut miles runAvg speedWind from/ knotsBaromVisibWave heightAir tempDewpointWater temp
2014-Dec-21 18:19N 36°20' E 014°31'1013.3
2014-Dec-21 17:33N 36°20' E 014°18'1313.3
2014-Dec-21 16:33N 36°21' E 014°02'54313.5
2014-Dec-20 00:14N 37°07' E 002°47'1014.7
2014-Dec-19 23:32N 37°06' E 002°35'1914.4
2014-Dec-19 22:12N 37°01' E 002°11'813.1
2014-Dec-19 21:33N 36°60' E 002°01'1313.5
2014-Dec-19 20:33N 36°56' E 001°45'1414.4
2014-Dec-19 19:33N 36°53' E 001°27'1514.7
2014-Dec-19 18:33N 36°51' E 001°09'1413.4
2014-Dec-19 17:30N 36°47' E 000°52'2914.7
2014-Dec-19 15:33N 36°41' E 000°17'2914.4
2014-Dec-19 13:32N 36°37' W 000°19'1414.2
2014-Dec-19 12:34N 36°35' W 000°36'1913.9
2014-Dec-19 11:12N 36°33' W 000°59'21113.5
2014-Dec-18 19:34N 35°57' W 005°18'3 2.8
2014-Dec-18 18:29N 35°55' W 005°20'0 0.0
2014-Dec-18 17:32N 35°55' W 005°20'0 0.1
2014-Dec-18 16:32N 35°55' W 005°20'0 0.0
2014-Dec-18 15:32N 35°55' W 005°20'0 0.0
2014-Dec-18 14:32N 35°55' W 005°20'0 0.0
2014-Dec-18 13:32N 35°55' W 005°20'0 0.0
2014-Dec-18 12:32N 35°55' W 005°20'0 0.0
2014-Dec-18 11:32N 35°55' W 005°20'0 0.0
2014-Dec-18 10:32N 35°55' W 005°20'1 0.8
2014-Dec-18 09:33N 35°56' W 005°20'9 9.2
2014-Dec-18 08:33N 36°02' W 005°12'3 2.4
2014-Dec-18 07:31N 36°02' W 005°15'1 1.3
2014-Dec-18 06:33N 36°01' W 005°15'6 6.0
2014-Dec-18 05:33N 35°59' W 005°22'  
Track history (hours):
 
Tides and Currents Weather Stations Pressure Air Temp Water Temp Dewpoint Dewpoint Depression Visibility Wind Speed Wind Dir Waves Ship Positions

Clipper Imabari

Last reported at 2014-Dec-21 18:19 UTC. Time now 2014-Dec-22 08:24 UTC.
Position N 36°20' E 014°31'.

Length 169 m; draft 9.3 m.

Type: Cargo ship. MMSI: 370016000.

Date/timePositionNaut miles runAvg speedWind from/ knotsBaromVisibWave heightAir tempDewpointWater temp
2014-Dec-21 18:19N 36°20' E 014°31'1013.3
2014-Dec-21 17:33N 36°20' E 014°18'1313.3
2014-Dec-21 16:33N 36°21' E 014°02'54313.5
2014-Dec-20 00:14N 37°07' E 002°47'1014.7
2014-Dec-19 23:32N 37°06' E 002°35'1914.4
2014-Dec-19 22:12N 37°01' E 002°11'813.1
2014-Dec-19 21:33N 36°60' E 002°01'1313.5
2014-Dec-19 20:33N 36°56' E 001°45'1414.4
2014-Dec-19 19:33N 36°53' E 001°27'1514.7
2014-Dec-19 18:33N 36°51' E 001°09'1413.4
2014-Dec-19 17:30N 36°47' E 000°52'2914.7
2014-Dec-19 15:33N 36°41' E 000°17'2914.4
2014-Dec-19 13:32N 36°37' W 000°19'1414.2
2014-Dec-19 12:34N 36°35' W 000°36'1913.9
2014-Dec-19 11:12N 36°33' W 000°59'21113.5
2014-Dec-18 19:34N 35°57' W 005°18'3 2.8
2014-Dec-18 18:29N 35°55' W 005°20'0 0.0
2014-Dec-18 17:32N 35°55' W 005°20'0 0.1
2014-Dec-18 16:32N 35°55' W 005°20'0 0.0
2014-Dec-18 15:32N 35°55' W 005°20'0 0.0
2014-Dec-18 14:32N 35°55' W 005°20'0 0.0
2014-Dec-18 13:32N 35°55' W 005°20'0 0.0
2014-Dec-18 12:32N 35°55' W 005°20'0 0.0
2014-Dec-18 11:32N 35°55' W 005°20'0 0.0
2014-Dec-18 10:32N 35°55' W 005°20'1 0.8
2014-Dec-18 09:33N 35°56' W 005°20'9 9.2
2014-Dec-18 08:33N 36°02' W 005°12'3 2.4
2014-Dec-18 07:31N 36°02' W 005°15'1 1.3
2014-Dec-18 06:33N 36°01' W 005°15'6 6.0
2014-Dec-18 05:33N 35°59' W 005°22'  

Dump ship's entire track history